Time;durP1;ratioP1;P1;durP2;ratioP2;P2;SDS_P1;SDS_P2;PMS_P1;PMS_P2;Temp;Humidity;BMP_temperature;BMP_pressure;BME280_temperature;BME280_humidity;BME280_pressure;Samples;Min_cycle;Max_cycle;Signal;HPM_P1;HPM_P2
2022/07/06 00:02:20;;;;;;;59.80;56.70;;;;;;;18.86;52.68;97237.28;5073122;28;20205;-66
2022/07/06 00:04:45;;;;;;;40.13;38.03;;;;;;;18.89;52.63;97231.44;5073038;28;20185;-66
2022/07/06 00:07:10;;;;;;;36.33;34.03;;;;;;;18.75;53.07;97237.56;5072095;28;20641;-66
2022/07/06 00:09:36;;;;;;;22.17;20.97;;;;;;;18.76;53.12;97234.66;5073588;28;20649;-66
2022/07/06 00:12:02;;;;;;;31.50;29.53;;;;;;;18.72;53.03;97230.94;5073104;28;20577;-66
2022/07/06 00:14:27;;;;;;;39.33;37.03;;;;;;;18.76;53.04;97232.00;5073199;28;20181;-66
2022/07/06 00:16:53;;;;;;;53.83;50.93;;;;;;;18.67;53.44;97236.22;5072630;28;20337;-66
2022/07/06 00:19:18;;;;;;;64.50;61.20;;;;;;;18.71;53.34;97226.69;5072328;28;20256;-66
2022/07/06 00:21:43;;;;;;;60.10;56.90;;;;;;;18.71;53.39;97226.69;5054803;28;20204;-66
2022/07/06 00:24:09;;;;;;;55.38;52.28;;;;;;;18.63;53.72;97221.91;5072782;28;20189;-66
2022/07/06 00:26:34;;;;;;;66.60;63.00;;;;;;;18.55;53.90;97223.25;5072680;28;20176;-65
2022/07/06 00:29:00;;;;;;;82.57;78.20;;;;;;;18.44;54.49;97221.63;5072612;28;20289;-65
2022/07/06 00:31:25;;;;;;;62.90;59.60;;;;;;;18.42;54.62;97228.25;5072711;28;20201;-65
2022/07/06 00:33:51;;;;;;;54.33;51.20;;;;;;;18.44;54.62;97226.16;5072408;28;20242;-66
2022/07/06 00:36:17;;;;;;;36.03;33.97;;;;;;;18.44;54.62;97231.47;5073005;28;20203;-66
2022/07/06 00:38:42;;;;;;;27.02;25.63;;;;;;;18.37;54.73;97234.38;5072567;28;20177;-65
2022/07/06 00:41:08;;;;;;;21.27;20.10;;;;;;;18.44;54.74;97231.47;5070225;28;20233;-66
2022/07/06 00:43:58;;;;;;;18.80;17.87;;;;;;;18.56;54.46;97232.78;5074450;28;20196;-65
2022/07/06 00:46:32;;;;;;;19.33;18.00;;;;;;;18.50;54.52;97231.16;5077485;28;20173;-65
2022/07/06 00:48:58;;;;;;;24.67;23.33;;;;;;;18.46;54.73;97231.97;5074575;28;20193;-67
2022/07/06 00:51:29;;;;;;;40.57;38.17;;;;;;;18.48;54.78;97230.66;5073077;28;20248;-66
2022/07/06 00:53:58;;;;;;;48.47;45.77;;;;;;;18.35;55.03;97228.53;5072965;28;20175;-65
2022/07/06 00:56:23;;;;;;;71.47;67.37;;;;;;;18.40;54.74;97220.56;5072548;28;20264;-66
2022/07/06 00:58:49;;;;;;;85.20;80.47;;;;;;;18.25;55.45;97225.88;5072480;28;20626;-65
2022/07/06 01:01:15;;;;;;;91.83;87.03;;;;;;;18.31;55.31;97230.13;5071565;28;20232;-66
2022/07/06 01:03:40;;;;;;;85.50;80.63;;;;;;;18.12;55.75;97226.38;5071918;28;20286;-65
2022/07/06 01:06:06;;;;;;;97.30;92.07;;;;;;;18.10;55.88;97225.84;5054420;28;20607;-66
2022/07/06 01:08:32;;;;;;;108.70;102.87;;;;;;;18.00;56.08;97223.97;5054189;28;20272;-65
2022/07/06 01:10:57;;;;;;;131.37;124.30;;;;;;;18.10;55.97;97225.84;5071685;28;20201;-66
2022/07/06 01:13:23;;;;;;;135.20;127.63;;;;;;;18.07;56.17;97224.50;5071373;28;20204;-66
2022/07/06 01:15:49;;;;;;;153.87;145.53;;;;;;;17.90;56.71;97229.25;5071623;28;20173;-66
2022/07/06 01:18:15;;;;;;;150.00;141.80;;;;;;;18.01;56.06;97222.09;5070615;28;20184;-66
2022/07/06 01:20:40;;;;;;;144.47;136.60;;;;;;;17.91;56.62;97219.44;5071620;28;20488;-66
2022/07/06 01:23:08;;;;;;;148.80;140.87;;;;;;;17.99;56.29;97219.75;5071563;28;20192;-66
2022/07/06 01:25:33;;;;;;;117.07;110.80;;;;;;;18.19;55.56;97222.41;5070537;28;20177;-66
2022/07/06 01:27:59;;;;;;;108.90;103.00;;;;;;;17.96;56.22;97219.44;5070993;28;20248;-66
2022/07/06 01:30:27;;;;;;;89.00;84.23;;;;;;;17.93;55.96;97218.13;5072112;28;20185;-65
2022/07/06 01:32:53;;;;;;;71.87;68.03;;;;;;;17.81;56.47;97210.41;5071776;28;20190;-65
2022/07/06 01:35:19;;;;;;;66.40;62.80;;;;;;;17.69;56.62;97214.34;5053412;28;20261;-66
2022/07/06 01:37:44;;;;;;;44.33;41.97;;;;;;;17.74;56.91;97214.38;5053406;28;20186;-66
2022/07/06 01:40:11;;;;;;;39.40;37.07;;;;;;;17.81;56.67;97214.91;5069155;28;20585;-66
2022/07/06 01:42:37;;;;;;;36.83;34.53;;;;;;;17.80;56.33;97222.06;5072001;28;20594;-65
2022/07/06 01:45:04;;;;;;;37.93;35.77;;;;;;;17.51;57.37;97220.88;5071967;28;20205;-65
2022/07/06 01:47:30;;;;;;;40.57;38.17;;;;;;;17.64;57.25;97217.78;5071700;28;20312;-66
2022/07/06 01:49:59;;;;;;;39.40;37.07;;;;;;;17.63;56.85;97216.19;5071375;28;20599;-65
2022/07/06 01:52:25;;;;;;;41.40;39.13;;;;;;;17.51;57.33;97215.59;5070925;28;20244;-66
2022/07/06 01:54:52;;;;;;;40.63;38.33;;;;;;;17.54;57.09;97207.13;5071244;28;20483;-66
2022/07/06 01:57:17;;;;;;;47.43;44.83;;;;;;;17.56;56.90;97209.50;5071136;28;20205;-66
2022/07/06 01:59:43;;;;;;;55.13;52.23;;;;;;;17.47;57.49;97209.22;5070072;28;20227;-66
2022/07/06 02:02:08;;;;;;;56.07;53.13;;;;;;;17.34;57.67;97215.00;5070713;28;20200;-66
2022/07/06 02:04:34;;;;;;;52.07;48.97;;;;;;;17.36;57.69;97224.28;5071092;28;20203;-65
2022/07/06 02:06:59;;;;;;;51.67;48.83;;;;;;;17.30;57.81;97229.81;5071110;28;20275;-66
2022/07/06 02:09:25;;;;;;;49.83;47.10;;;;;;;17.13;58.26;97219.41;5070781;28;20247;-66
2022/07/06 02:11:50;;;;;;;50.67;47.83;;;;;;;17.16;58.25;97226.06;5070105;28;20204;-66
2022/07/06 02:14:15;;;;;;;67.30;63.57;;;;;;;17.12;58.64;97222.31;5070752;28;20567;-65
2022/07/06 02:16:41;;;;;;;73.83;69.70;;;;;;;17.18;58.20;97226.56;5070845;28;20192;-66
2022/07/06 02:19:07;;;;;;;77.87;73.63;;;;;;;17.16;58.58;97228.69;5070267;28;20181;-66
2022/07/06 02:21:32;;;;;;;87.60;82.97;;;;;;;17.17;58.35;97225.78;5053055;28;20212;-65
2022/07/06 02:23:57;;;;;;;81.67;77.07;;;;;;;17.02;58.62;97228.34;5070881;28;20189;-66
2022/07/06 02:26:23;;;;;;;91.10;86.23;;;;;;;16.97;58.86;97230.97;5071249;28;20184;-66
2022/07/06 02:28:48;;;;;;;78.23;73.80;;;;;;;16.91;59.10;97226.69;5071202;28;20258;-65
2022/07/06 02:31:14;;;;;;;58.93;55.70;;;;;;;17.14;58.63;97226.31;5074959;28;20291;-65
2022/07/06 02:33:41;;;;;;;42.97;40.47;;;;;;;16.80;59.47;97222.38;5074810;28;20494;-66
2022/07/06 02:36:07;;;;;;;26.67;24.90;;;;;;;16.73;59.72;97225.25;5074849;28;20683;-66
2022/07/06 02:38:32;;;;;;;24.43;23.03;;;;;;;16.62;60.26;97234.16;5074872;28;20177;-66
2022/07/06 02:40:58;;;;;;;29.97;27.93;;;;;;;16.68;60.14;97232.34;5072578;28;20228;-66
2022/07/06 02:43:24;;;;;;;30.60;29.00;;;;;;;16.72;60.54;97236.88;5074846;28;20177;-65
2022/07/06 02:45:49;;;;;;;26.73;25.30;;;;;;;16.72;60.12;97242.19;5075443;28;20265;-66
2022/07/06 02:48:15;;;;;;;17.03;16.10;;;;;;;16.70;60.48;97244.31;5075084;28;20577;-65
2022/07/06 02:50:40;;;;;;;14.87;14.07;;;;;;;16.43;61.07;97244.34;5074783;28;20169;-65
2022/07/06 02:53:05;;;;;;;21.23;19.93;;;;;;;16.54;60.91;97245.22;5074922;28;20178;-65
2022/07/06 02:55:31;;;;;;;48.80;45.87;;;;;;;16.61;60.84;97248.44;5074592;28;20181;-65
2022/07/06 02:57:56;;;;;;;91.23;86.33;;;;;;;16.57;61.06;97250.78;5056388;28;20174;-66
2022/07/06 03:00:22;;;;;;;138.77;131.47;;;;;;;16.54;61.25;97247.84;5073652;28;20179;-66
2022/07/06 03:02:47;;;;;;;155.00;147.17;;;;;;;16.65;61.18;97241.63;5074297;28;20610;-66
2022/07/06 03:05:13;;;;;;;116.23;109.80;;;;;;;16.48;61.90;97243.56;5074214;28;20181;-66
2022/07/06 03:07:38;;;;;;;61.40;58.17;;;;;;;16.47;62.03;97247.25;5074598;28;20223;-66
2022/07/06 03:10:04;;;;;;;35.63;33.70;;;;;;;16.35;62.46;97251.91;5074197;28;20280;-66
2022/07/06 03:12:30;;;;;;;28.77;27.13;;;;;;;16.35;62.54;97250.06;5074450;28;20201;-66
2022/07/06 03:14:55;;;;;;;36.63;34.63;;;;;;;16.46;62.08;97256.25;5074378;28;20544;-66
2022/07/06 03:17:21;;;;;;;45.13;42.27;;;;;;;16.39;62.50;97259.09;5073567;28;20203;-66
2022/07/06 03:19:47;;;;;;;39.90;37.73;;;;;;;16.40;62.56;97260.69;5074086;28;20178;-66
2022/07/06 03:22:12;;;;;;;31.20;29.50;;;;;;;16.22;63.11;97264.50;5057800;28;20204;-66
2022/07/06 03:24:38;;;;;;;22.43;21.07;;;;;;;16.27;63.00;97263.78;5074041;28;20179;-66
2022/07/06 03:27:03;;;;;;;25.40;23.90;;;;;;;16.23;63.39;97255.53;5074061;28;20521;-66
2022/07/06 03:29:29;;;;;;;23.60;21.97;;;;;;;16.21;63.59;97255.00;5073814;28;20208;-66
2022/07/06 03:31:54;;;;;;;26.67;25.10;;;;;;;16.33;63.29;97254.03;5073613;28;20303;-66
2022/07/06 03:34:20;;;;;;;27.03;25.63;;;;;;;16.25;63.57;97259.75;5074014;28;20575;-66
2022/07/06 03:36:45;;;;;;;32.20;30.27;;;;;;;16.32;63.39;97258.53;5074902;28;20181;-66
2022/07/06 03:39:10;;;;;;;36.73;34.57;;;;;;;16.21;63.87;97264.78;5074590;28;20181;-66
2022/07/06 03:41:36;;;;;;;44.60;41.97;;;;;;;16.39;63.46;97259.09;5071723;28;20241;-66
2022/07/06 03:44:03;;;;;;;47.47;44.27;;;;;;;16.11;64.28;97257.50;5074070;28;20226;-66
2022/07/06 03:46:28;;;;;;;46.00;43.50;;;;;;;16.19;63.96;97259.72;5074334;28;20250;-66
2022/07/06 03:48:54;;;;;;;44.63;42.13;;;;;;;16.32;63.85;97266.47;5073984;28;20208;-66
2022/07/06 03:51:20;;;;;;;43.50;41.20;;;;;;;16.32;63.72;97250.59;5073354;28;20624;-66
2022/07/06 03:53:45;;;;;;;38.97;36.87;;;;;;;16.53;63.35;97257.63;5073729;28;20174;-66
2022/07/06 03:56:29;;;;;;;21.43;20.13;;;;;;;16.68;62.67;97264.13;5073483;28;20182;-66
2022/07/06 03:59:00;;;;;;;14.47;13.50;;;;;;;16.65;62.59;97260.16;5072973;28;20632;-66
2022/07/06 04:01:26;;;;;;;22.33;20.97;;;;;;;16.84;62.39;97261.34;5072942;28;20247;-66
2022/07/06 04:03:51;;;;;;;31.70;30.03;;;;;;;16.53;62.51;97264.78;5073633;28;20185;-66
2022/07/06 04:06:17;;;;;;;33.90;32.03;;;;;;;16.65;62.52;97268.09;5055520;28;20306;-66
2022/07/06 04:08:43;;;;;;;36.00;34.10;;;;;;;16.94;61.66;97277.28;5073441;28;20204;-66
2022/07/06 04:11:08;;;;;;;56.77;52.97;;;;;;;16.86;61.99;97264.53;5072815;28;20228;-67
2022/07/06 04:13:34;;;;;;;54.90;52.00;;;;;;;17.00;61.58;97275.47;5072706;28;20200;-67
2022/07/06 04:16:00;;;;;;;42.83;40.17;;;;;;;17.26;60.96;97274.59;5073048;28;20227;-66
2022/07/06 04:18:25;;;;;;;23.27;21.90;;;;;;;17.43;60.33;97277.06;5072864;28;20188;-66
2022/07/06 04:20:51;;;;;;;16.40;15.30;;;;;;;17.27;60.86;97276.19;5072846;28;20208;-66
2022/07/06 04:23:17;;;;;;;19.80;18.60;;;;;;;17.68;59.75;97281.69;5072481;28;20174;-66
2022/07/06 04:25:42;;;;;;;25.17;23.73;;;;;;;17.63;60.14;97279.03;5072945;28;20178;-66
2022/07/06 04:28:08;;;;;;;29.43;27.60;;;;;;;17.99;58.83;97279.94;5072919;28;20598;-66
2022/07/06 04:30:33;;;;;;;29.50;27.53;;;;;;;17.42;60.51;97280.75;5072066;28;20185;-66
2022/07/06 04:32:59;;;;;;;30.60;28.70;;;;;;;17.39;60.89;97284.72;5073019;28;20325;-66
2022/07/06 04:35:24;;;;;;;30.43;28.67;;;;;;;17.82;59.93;97283.63;5072898;28;20534;-66
2022/07/06 04:37:50;;;;;;;24.87;23.27;;;;;;;17.88;59.96;97279.13;5072994;28;20193;-66
2022/07/06 04:40:15;;;;;;;34.83;32.92;;;;;;;17.85;59.63;97284.94;5070485;28;20236;-66
2022/07/06 04:42:41;;;;;;;37.07;34.87;;;;;;;18.38;58.52;97291.72;5072628;28;20240;-66
2022/07/06 04:45:07;;;;;;;38.93;36.83;;;;;;;18.05;59.36;97289.53;5072647;28;20184;-66
2022/07/06 04:47:32;;;;;;;37.70;35.65;;;;;;;17.91;59.89;97291.06;5054648;28;20181;-66
2022/07/06 04:49:57;;;;;;;42.22;39.50;;;;;;;18.42;58.61;97292.75;5072916;28;20232;-66
2022/07/06 04:52:23;;;;;;;45.60;42.95;;;;;;;18.35;58.86;97291.41;5072052;28;20703;-60
2022/07/06 04:54:48;;;;;;;42.10;39.88;;;;;;;17.99;59.71;97296.66;5072715;28;20174;-67
2022/07/06 04:57:14;;;;;;;46.88;44.20;;;;;;;18.20;59.38;97298.31;5072056;28;20202;-65
2022/07/06 04:59:39;;;;;;;44.75;42.33;;;;;;;18.33;59.29;97294.34;5072005;28;20216;-66
2022/07/06 05:02:05;;;;;;;43.63;41.30;;;;;;;17.91;60.38;97294.50;5072267;28;20197;-66
2022/07/06 05:04:30;;;;;;;57.67;54.27;;;;;;;18.49;59.00;97289.84;5072385;28;20177;-63
2022/07/06 05:06:56;;;;;;;56.60;53.58;;;;;;;18.77;58.01;97301.84;5072136;28;20256;-64
2022/07/06 05:09:21;;;;;;;58.90;55.75;;;;;;;18.68;58.41;97301.56;5071799;28;20251;-66
2022/07/06 05:11:47;;;;;;;68.60;65.00;;;;;;;19.36;56.92;97302.84;5072023;28;20201;-65
2022/07/06 05:14:12;;;;;;;82.32;77.50;;;;;;;19.32;56.64;97301.00;5072109;28;20656;-66
2022/07/06 05:16:38;;;;;;;90.00;85.10;;;;;;;18.80;58.06;97310.06;5071028;28;20189;-65
2022/07/06 05:19:04;;;;;;;140.65;133.43;;;;;;;18.98;57.63;97308.75;5072243;28;20646;-66
2022/07/06 05:21:29;;;;;;;78.65;74.47;;;;;;;19.09;57.61;97315.63;5060217;28;20204;-64
2022/07/06 05:23:55;;;;;;;214.13;202.50;;;;;;;19.64;56.03;97316.59;5072152;28;20173;-64
2022/07/06 05:26:20;;;;;;;122.22;115.95;;;;;;;19.22;56.75;97312.44;5071716;28;20203;-65
2022/07/06 05:28:46;;;;;;;133.82;126.82;;;;;;;19.27;57.42;97315.09;5071988;28;20671;-64
2022/07/06 05:31:11;;;;;;;95.78;90.47;;;;;;;19.74;55.46;97319.22;5072030;28;20270;-64
2022/07/06 05:33:37;;;;;;;69.18;65.47;;;;;;;19.96;54.52;97319.66;5072071;28;20173;-64
2022/07/06 05:36:02;;;;;;;60.00;56.85;;;;;;;19.86;55.26;97317.06;5053664;28;20173;-64
2022/07/06 05:38:28;;;;;;;58.30;54.88;;;;;;;19.54;55.96;97321.97;5071881;28;20183;-64
2022/07/06 05:40:53;;;;;;;64.53;61.13;;;;;;;19.78;55.54;97321.06;5069749;28;20229;-64
2022/07/06 05:43:19;;;;;;;46.97;44.33;;;;;;;20.12;54.86;97318.53;5071964;28;20182;-64
2022/07/06 05:45:44;;;;;;;43.05;39.88;;;;;;;20.90;52.58;97313.22;5072183;28;20193;-64
2022/07/06 05:50:54;;;;;;;30.10;28.10;;;;;;;19.02;56.64;97321.22;5072051;28;20316;-64
2022/07/06 05:53:19;;;;;;;36.45;34.20;;;;;;;18.98;57.29;97322.03;5071723;28;20646;-64
2022/07/06 05:55:45;;;;;;;57.30;54.28;;;;;;;19.04;56.96;97319.09;5071743;28;20201;-65
2022/07/06 05:58:11;;;;;;;79.60;75.18;;;;;;;18.73;57.27;97333.44;5071435;28;20518;-64
2022/07/06 06:00:36;;;;;;;83.15;78.70;;;;;;;19.19;56.48;97330.78;5071395;28;20203;-64
2022/07/06 06:03:02;;;;;;;74.60;70.63;;;;;;;19.42;55.56;97322.22;5070805;28;20197;-64
2022/07/06 06:05:27;;;;;;;84.15;79.60;;;;;;;19.33;55.75;97323.84;5071506;28;20173;-66
2022/07/06 06:07:53;;;;;;;78.55;74.20;;;;;;;19.24;55.56;97331.56;5071586;28;20209;-63
2022/07/06 06:10:21;;;;;;;77.60;73.47;;;;;;;18.94;56.60;97331.59;5053194;28;20177;-64
2022/07/06 06:12:47;;;;;;;77.13;72.95;;;;;;;19.44;55.67;97328.88;5071464;28;20201;-65
2022/07/06 06:15:13;;;;;;;72.68;68.80;;;;;;;19.58;54.82;97333.66;5053809;28;20173;-63
2022/07/06 06:17:39;;;;;;;87.90;83.40;;;;;;;19.30;55.61;97330.50;5071210;28;20204;-64
2022/07/06 06:20:07;;;;;;;85.28;80.88;;;;;;;19.58;55.21;97334.44;5053485;28;20200;-66
2022/07/06 06:22:48;;;;;;;84.50;79.82;;;;;;;19.82;54.30;97338.09;5053163;28;20637;-65
2022/07/06 06:25:19;;;;;;;79.80;75.53;;;;;;;19.70;55.43;97339.47;5056063;28;20221;-66
2022/07/06 06:27:45;;;;;;;65.82;62.25;;;;;;;20.57;53.55;97341.47;5071406;28;20235;-66
2022/07/06 06:30:12;;;;;;;40.97;38.83;;;;;;;20.93;52.54;97342.00;5071580;28;20249;-67
2022/07/06 06:33:03;;;;;;;32.47;30.52;;;;;;;20.41;53.31;97344.50;5071418;28;20336;-68
2022/07/06 06:35:29;;;;;;;30.02;28.13;;;;;;;21.25;52.11;97346.81;5052152;28;20177;-68
2022/07/06 06:37:55;;;;;;;78.82;74.82;;;;;;;21.48;51.23;97345.25;5071134;28;20645;-68
2022/07/06 06:40:21;;;;;;;132.32;125.65;;;;;;;20.62;53.47;97345.94;5069453;28;20221;-68
2022/07/06 06:42:47;;;;;;;150.82;143.30;;;;;;;21.85;50.78;97348.06;5071192;28;20300;-65
2022/07/06 06:45:12;;;;;;;225.77;214.70;;;;;;;22.20;49.52;97346.84;5071181;28;20191;-65
2022/07/06 06:47:38;;;;;;;163.57;155.55;;;;;;;20.98;51.39;97346.50;5071028;28;20184;-65
2022/07/06 06:50:04;;;;;;;176.63;167.90;;;;;;;20.15;53.94;97341.94;5070101;28;20250;-65
2022/07/06 06:52:29;;;;;;;219.68;208.75;;;;;;;20.08;54.53;97351.28;5070867;28;20219;-66
2022/07/06 06:54:54;;;;;;;222.32;211.48;;;;;;;20.13;54.40;97356.59;5071047;28;20173;-65
2022/07/06 06:57:20;;;;;;;176.93;168.27;;;;;;;20.19;53.87;97352.84;5071103;28;20631;-65
2022/07/06 06:59:46;;;;;;;91.18;86.60;;;;;;;19.68;54.05;97361.00;5062237;28;20615;-65
2022/07/06 07:02:11;;;;;;;125.03;118.50;;;;;;;20.16;53.93;97342.75;5065497;28;20202;-65
2022/07/06 07:04:37;;;;;;;160.18;152.27;;;;;;;20.01;54.31;97346.25;5067615;28;20468;-64
2022/07/06 07:07:02;;;;;;;28.90;27.23;;;;;;;20.03;55.13;97353.97;5071212;28;20181;-64
2022/07/06 07:09:28;;;;;;;29.40;27.67;;;;;;;19.86;55.22;97343.66;5069758;28;20689;-65
2022/07/06 07:11:54;;;;;;;42.08;39.83;;;;;;;19.46;56.02;97345.38;5070873;28;20856;-64
2022/07/06 07:14:20;;;;;;;56.08;53.10;;;;;;;20.76;53.29;97344.28;5071394;28;20170;-64
2022/07/06 07:16:45;;;;;;;24.88;23.52;;;;;;;21.10;52.26;97342.41;5073994;28;20197;-64
2022/07/06 07:19:11;;;;;;;127.28;120.85;;;;;;;21.84;49.84;97338.47;5065476;28;20578;-64
2022/07/06 07:21:36;;;;;;;87.45;82.93;;;;;;;22.28;48.31;97337.41;5067915;28;20193;-64
2022/07/06 07:24:03;;;;;;;84.75;80.25;;;;;;;20.92;51.69;97339.63;5068222;28;20170;-64
2022/07/06 07:26:28;;;;;;;84.75;80.45;;;;;;;20.25;52.35;97347.22;5072991;28;20176;-64
2022/07/06 07:28:54;;;;;;;124.25;117.75;;;;;;;20.58;52.36;97336.94;5073709;28;20198;-64
2022/07/06 07:31:19;;;;;;;100.90;95.75;;;;;;;21.52;49.81;97336.41;5073662;28;20212;-64
2022/07/06 07:33:45;;;;;;;81.82;77.32;;;;;;;21.22;50.75;97328.72;5073837;28;20185;-64
2022/07/06 07:36:10;;;;;;;71.47;67.80;;;;;;;22.16;49.26;97332.50;5072824;28;20260;-64
2022/07/06 07:38:36;;;;;;;212.50;201.88;;;;;;;22.63;47.61;97328.09;5073867;28;20224;-64
2022/07/06 07:41:01;;;;;;;239.77;227.77;;;;;;;21.29;50.38;97333.75;5068972;28;20244;-64
2022/07/06 07:43:26;;;;;;;68.55;65.05;;;;;;;20.81;52.03;97325.56;5074117;28;20178;-64
2022/07/06 07:45:52;;;;;;;83.47;79.30;;;;;;;21.75;49.86;97324.16;5074372;28;20258;-64
2022/07/06 07:48:17;;;;;;;111.25;105.80;;;;;;;21.77;49.96;97318.53;5073681;28;20627;-64
2022/07/06 07:50:43;;;;;;;114.85;109.03;;;;;;;21.71;50.11;97323.13;5073716;28;20173;-64
2022/07/06 07:53:08;;;;;;;147.93;140.75;;;;;;;21.89;49.20;97333.06;5074157;28;20529;-64
2022/07/06 07:55:34;;;;;;;217.00;206.07;;;;;;;21.54;49.77;97326.25;5074210;28;20169;-64
2022/07/06 07:57:59;;;;;;;163.93;155.65;;;;;;;21.85;49.60;97333.91;5069693;28;20165;-64
2022/07/06 08:00:26;;;;;;;160.95;153.10;;;;;;;22.65;48.02;97329.41;5073360;28;20172;-64
2022/07/06 08:02:52;;;;;;;153.85;145.68;;;;;;;22.11;49.07;97329.09;5073562;28;20638;-64
2022/07/06 08:05:18;;;;;;;148.13;140.63;;;;;;;21.77;49.55;97323.88;5073688;28;20196;-64
2022/07/06 08:07:44;;;;;;;132.80;125.88;;;;;;;20.70;51.19;97332.84;5073289;28;20215;-64
2022/07/06 08:10:10;;;;;;;198.98;189.18;;;;;;;20.28;53.00;97328.03;5072850;28;20181;-64
2022/07/06 08:12:35;;;;;;;184.50;175.30;;;;;;;20.43;51.92;97326.38;5073555;28;20692;-63
2022/07/06 08:15:01;;;;;;;240.32;228.27;;;;;;;20.31;50.64;97338.16;5073595;28;20169;-63
2022/07/06 08:17:27;;;;;;;89.00;84.47;;;;;;;20.33;52.02;97329.91;5080734;28;20184;-63
2022/07/06 08:19:52;;;;;;;61.15;57.72;;;;;;;20.45;52.45;97330.34;5094032;28;20165;-64
2022/07/06 08:22:18;;;;;;;145.45;138.07;;;;;;;21.37;51.43;97335.78;5079390;28;20632;-64
2022/07/06 08:24:43;;;;;;;138.20;131.18;;;;;;;21.94;50.12;97338.38;5073716;28;20168;-65
2022/07/06 08:27:09;;;;;;;109.38;103.75;;;;;;;21.64;50.49;97329.88;5072620;28;20181;-64
2022/07/06 08:29:34;;;;;;;59.15;56.00;;;;;;;21.34;50.94;97329.16;5072873;28;20661;-64
2022/07/06 08:32:00;;;;;;;172.48;163.75;;;;;;;21.66;49.31;97333.88;5073147;28;20216;-64
2022/07/06 08:34:25;;;;;;;56.45;53.30;;;;;;;21.90;50.27;97331.97;5080810;28;20554;-64
2022/07/06 08:36:50;;;;;;;61.38;58.13;;;;;;;21.56;51.23;97331.31;5068485;28;20208;-64
2022/07/06 08:39:17;;;;;;;59.85;56.55;;;;;;;21.95;49.96;97331.16;5081112;28;20268;-64
2022/07/06 08:41:47;;;;;;;58.60;55.30;;;;;;;20.77;53.54;97332.53;5056177;28;20229;-64
2022/07/06 08:44:13;;;;;;;118.88;112.60;;;;;;;20.43;54.10;97329.84;5057144;28;20190;-64
2022/07/06 08:46:41;;;;;;;106.18;100.50;;;;;;;21.97;50.51;97329.00;5052547;28;20158;-64
2022/07/06 08:49:08;;;;;;;76.35;72.43;;;;;;;22.84;48.24;97337.44;5045151;28;20205;-65
2022/07/06 08:51:37;;;;;;;148.95;141.52;;;;;;;23.00;47.57;97330.75;5048515;28;20686;-65
2022/07/06 08:54:03;;;;;;;172.23;163.25;;;;;;;21.10;50.55;97345.06;5052957;28;20177;-65
2022/07/06 08:56:29;;;;;;;119.10;113.18;;;;;;;21.42;51.30;97336.53;5052998;28;20174;-65
2022/07/06 08:58:55;;;;;;;78.10;73.90;;;;;;;21.19;51.67;97341.81;5049790;28;20346;-64
2022/07/06 09:01:21;;;;;;;64.22;60.83;;;;;;;22.12;50.06;97336.84;5052972;28;20197;-65
2022/07/06 09:03:49;;;;;;;157.38;149.68;;;;;;;22.32;48.71;97336.56;5053071;28;20174;-64
2022/07/06 09:06:19;;;;;;;167.80;159.32;;;;;;;22.47;48.66;97332.84;5042786;28;20200;-66
2022/07/06 09:08:46;;;;;;;139.30;132.20;;;;;;;22.80;47.55;97339.06;5051234;28;20208;-65
2022/07/06 09:11:12;;;;;;;95.15;89.97;;;;;;;22.89;47.21;97348.03;5052525;28;20202;-63
2022/07/06 09:13:37;;;;;;;85.43;80.78;;;;;;;22.86;47.49;97340.59;5052400;28;20238;-64
2022/07/06 09:16:15;;;;;;;63.95;60.38;;;;;;;23.13;46.67;97345.22;5051911;28;20666;-64
2022/07/06 09:18:44;;;;;;;55.15;52.15;;;;;;;23.44;46.58;97348.19;5056743;28;20175;-64
2022/07/06 09:21:09;;;;;;;363.00;345.20;;;;;;;22.28;48.02;97342.75;5072484;28;20785;-64
2022/07/06 09:23:36;;;;;;;25.25;23.65;;;;;;;21.95;50.64;97352.53;5046375;28;20257;-64
2022/07/06 09:26:06;;;;;;;52.22;49.33;;;;;;;22.53;48.92;97350.41;5032755;28;20267;-64
2022/07/06 09:28:42;;;;;;;90.45;85.80;;;;;;;22.19;47.65;97358.63;5032662;28;20293;-64
2022/07/06 09:31:08;;;;;;;64.05;60.58;;;;;;;21.61;50.27;97346.47;5032626;28;20202;-64
2022/07/06 09:33:34;;;;;;;59.30;56.20;;;;;;;22.64;47.99;97356.41;5032282;28;20592;-64
2022/07/06 09:36:01;;;;;;;58.10;54.95;;;;;;;22.79;48.02;97348.97;5057702;28;20545;-64
2022/07/06 09:38:28;;;;;;;63.03;59.70;;;;;;;23.28;46.92;97352.22;5053863;28;20599;-64
2022/07/06 09:40:53;;;;;;;68.35;64.70;;;;;;;22.60;48.30;97355.41;5059021;28;20221;-65
2022/07/06 09:43:22;;;;;;;43.63;41.15;;;;;;;23.15;47.40;97361.78;5084616;28;20256;-65
2022/07/06 09:45:54;;;;;;;279.55;265.65;;;;;;;23.57;45.28;97361.59;5092589;28;20618;-65
2022/07/06 09:48:25;;;;;;;314.25;298.40;;;;;;;22.63;48.01;97360.94;5079485;28;20181;-65
2022/07/06 09:50:53;;;;;;;291.80;277.45;;;;;;;23.06;47.03;97356.31;5071735;28;20293;-64
2022/07/06 09:53:20;;;;;;;281.83;267.90;;;;;;;22.87;47.23;97358.22;5071871;28;20177;-64
2022/07/06 09:55:47;;;;;;;196.48;186.68;;;;;;;22.63;48.68;97358.28;5072044;28;20507;-64
2022/07/06 09:58:14;;;;;;;145.73;138.25;;;;;;;21.40;50.34;97356.56;5070505;28;20584;-64
2022/07/06 10:00:41;;;;;;;42.17;39.80;;;;;;;21.87;50.10;97359.25;5071406;28;20260;-64
2022/07/06 10:03:08;;;;;;;60.17;56.83;;;;;;;22.60;47.78;97368.75;5071371;28;20529;-64
2022/07/06 10:05:36;;;;;;;189.45;180.32;;;;;;;21.96;47.04;97370.13;5071815;28;20264;-64
2022/07/06 10:08:05;;;;;;;83.53;78.85;;;;;;;21.68;48.84;97371.72;5071398;28;20200;-64
2022/07/06 10:10:31;;;;;;;45.83;43.13;;;;;;;21.91;49.38;97373.59;5071200;28;20250;-64
2022/07/06 10:12:58;;;;;;;83.88;79.45;;;;;;;22.02;48.82;97368.97;5071573;28;20173;-63
2022/07/06 10:15:28;;;;;;;52.50;49.63;;;;;;;22.61;48.49;97367.69;5070633;28;20185;-63
2022/07/06 10:17:56;;;;;;;70.00;66.38;;;;;;;22.54;48.84;97368.03;5071374;28;20170;-63
2022/07/06 10:20:22;;;;;;;140.70;133.50;;;;;;;22.00;48.06;97375.69;5091024;28;20172;-63
2022/07/06 10:22:49;;;;;;;82.50;78.10;;;;;;;22.13;48.67;97370.44;5086373;28;20201;-63
2022/07/06 10:25:18;;;;;;;57.97;54.67;;;;;;;21.64;49.13;97384.06;5071687;28;20197;-64
2022/07/06 10:27:48;;;;;;;127.38;121.03;;;;;;;21.46;49.30;97374.09;5053840;28;20181;-64
2022/07/06 10:30:15;;;;;;;58.05;55.03;;;;;;;22.24;48.07;97376.44;5072357;28;20188;-64
2022/07/06 10:32:44;;;;;;;99.97;94.38;;;;;;;22.99;46.16;97373.81;5071958;28;20209;-64
2022/07/06 10:35:10;;;;;;;145.48;138.32;;;;;;;22.83;46.10;97372.47;5079134;28;20225;-64
2022/07/06 10:37:36;;;;;;;178.10;169.32;;;;;;;23.08;46.75;97369.38;5078903;28;20538;-65
2022/07/06 10:42:51;;;;;;;211.52;201.07;;;;;;;23.23;46.65;97371.81;5056451;28;20258;-64
2022/07/06 10:45:30;;;;;;;200.30;190.23;;;;;;;23.01;46.12;97390.38;5071588;28;20256;-64
2022/07/06 10:48:10;;;;;;;191.32;182.18;;;;;;;22.45;47.97;97383.13;5071651;28;20200;-64
2022/07/06 10:50:37;;;;;;;174.82;166.48;;;;;;;22.48;47.99;97379.06;5064093;28;20192;-64
2022/07/06 10:53:12;;;;;;;66.55;62.88;;;;;;;22.34;48.52;97376.34;5055133;28;20287;-63
2022/07/06 10:55:39;;;;;;;45.10;42.45;;;;;;;22.70;48.76;97374.75;5054424;28;20260;-63
2022/07/06 10:58:05;;;;;;;68.63;65.07;;;;;;;21.82;49.58;97374.53;5054360;28;20208;-64
2022/07/06 11:00:52;;;;;;;52.83;50.03;;;;;;;21.79;49.04;97367.88;5055449;28;20573;-63
2022/07/06 11:03:44;;;;;;;66.13;62.50;;;;;;;21.89;49.08;97370.44;5036849;28;20250;-63
2022/07/06 11:06:12;;;;;;;93.47;88.47;;;;;;;22.43;48.37;97363.91;5041061;28;20170;-63
2022/07/06 11:08:52;;;;;;;124.53;117.82;;;;;;;22.41;49.17;97368.75;5054069;28;20217;-63
2022/07/06 11:11:22;;;;;;;72.40;68.65;;;;;;;22.83;47.70;97372.47;5054714;28;20706;-64
2022/07/06 11:14:05;;;;;;;70.47;66.30;;;;;;;22.30;48.77;97367.28;5046735;28;20178;-61
2022/07/06 11:16:51;;;;;;;65.30;61.80;;;;;;;22.93;46.78;97364.28;5046584;28;20182;-63